<?xml version="1.0" encoding="UTF-8" standalone="no" ?>
<gpx xmlns="http://www.topografix.com/GPX/1/1" xmlns:xsi="http://www.w3.org/2001/XMLSchema-instance" xsi:schemaLocation="http://www.topografix.com/GPX/1/1 http://www.topografix.com/GPX/1/1/gpx.xsd" version="1.1" creator="VisuGPX - https://www.visugpx.com">
  <metadata>
    <name>1ere étape rando pâturages d'Aubrac</name>
    <desc><![CDATA[Rando de 3 étapes dont la 1ère est présentée ici.]]></desc>
  </metadata>
  <trk>
    <name><![CDATA[Nasbinals - Refuge des Rajas on GPSies.com]]></name>
    <trkseg>
      <trkpt lat="44.66263" lon="3.04581">
        <ele>1184</ele>
        <time>2010-01-01T00:00:00Z</time>
      </trkpt>
      <trkpt lat="44.66262" lon="3.0462">
        <ele>1183</ele>
        <time>2010-01-01T00:00:11Z</time>
      </trkpt>
      <trkpt lat="44.66259" lon="3.04655">
        <ele>1181</ele>
        <time>2010-01-01T00:00:21Z</time>
      </trkpt>
      <trkpt lat="44.66257" lon="3.04666">
        <ele>1180</ele>
        <time>2010-01-01T00:00:24Z</time>
      </trkpt>
      <trkpt lat="44.66251" lon="3.04674">
        <ele>1179</ele>
        <time>2010-01-01T00:00:27Z</time>
      </trkpt>
      <trkpt lat="44.66243" lon="3.04676">
        <ele>1178</ele>
        <time>2010-01-01T00:00:30Z</time>
      </trkpt>
      <trkpt lat="44.66234" lon="3.04672">
        <ele>1177</ele>
        <time>2010-01-01T00:00:34Z</time>
      </trkpt>
      <trkpt lat="44.66235" lon="3.04672">
        <ele>1177</ele>
        <time>2010-01-01T00:00:35Z</time>
      </trkpt>
      <trkpt lat="44.6622" lon="3.04661">
        <ele>1177</ele>
        <time>2010-01-01T00:00:41Z</time>
      </trkpt>
      <trkpt lat="44.66218" lon="3.04666">
        <ele>1176</ele>
        <time>2010-01-01T00:00:43Z</time>
      </trkpt>
      <trkpt lat="44.66209" lon="3.04674">
        <ele>1176</ele>
        <time>2010-01-01T00:00:47Z</time>
      </trkpt>
      <trkpt lat="44.66197" lon="3.04697">
        <ele>1175</ele>
        <time>2010-01-01T00:00:55Z</time>
      </trkpt>
      <trkpt lat="44.6619" lon="3.04723">
        <ele>1175</ele>
        <time>2010-01-01T00:01:03Z</time>
      </trkpt>
      <trkpt lat="44.66187" lon="3.04745">
        <ele>1174</ele>
        <time>2010-01-01T00:01:10Z</time>
      </trkpt>
      <trkpt lat="44.66181" lon="3.04809">
        <ele>1175</ele>
        <time>2010-01-01T00:01:28Z</time>
      </trkpt>
      <trkpt lat="44.66168" lon="3.04854">
        <ele>1178</ele>
        <time>2010-01-01T00:01:42Z</time>
      </trkpt>
      <trkpt lat="44.66163" lon="3.04862">
        <ele>1179</ele>
        <time>2010-01-01T00:01:45Z</time>
      </trkpt>
      <trkpt lat="44.66162" lon="3.04876">
        <ele>1179</ele>
        <time>2010-01-01T00:01:49Z</time>
      </trkpt>
      <trkpt lat="44.66151" lon="3.04906">
        <ele>1180</ele>
        <time>2010-01-01T00:01:59Z</time>
      </trkpt>
      <trkpt lat="44.6612" lon="3.04953">
        <ele>1182</ele>
        <time>2010-01-01T00:02:17Z</time>
      </trkpt>
      <trkpt lat="44.66091" lon="3.04982">
        <ele>1185</ele>
        <time>2010-01-01T00:02:31Z</time>
      </trkpt>
      <trkpt lat="44.66091" lon="3.04981">
        <ele>1186</ele>
        <time>2010-01-01T00:02:31Z</time>
      </trkpt>
      <trkpt lat="44.66064" lon="3.05002">
        <ele>1186</ele>
        <time>2010-01-01T00:02:44Z</time>
      </trkpt>
      <trkpt lat="44.66043" lon="3.05022">
        <ele>1186</ele>
        <time>2010-01-01T00:02:54Z</time>
      </trkpt>
      <trkpt lat="44.66035" lon="3.05042">
        <ele>1187</ele>
        <time>2010-01-01T00:03:00Z</time>
      </trkpt>
      <trkpt lat="44.66037" lon="3.05055">
        <ele>1186</ele>
        <time>2010-01-01T00:03:04Z</time>
      </trkpt>
      <trkpt lat="44.66037" lon="3.05056">
        <ele>1186</ele>
        <time>2010-01-01T00:03:04Z</time>
      </trkpt>
      <trkpt lat="44.66041" lon="3.05075">
        <ele>1185</ele>
        <time>2010-01-01T00:03:10Z</time>
      </trkpt>
      <trkpt lat="44.66012" lon="3.05109">
        <ele>1185</ele>
        <time>2010-01-01T00:03:25Z</time>
      </trkpt>
      <trkpt lat="44.66003" lon="3.05119">
        <ele>1185</ele>
        <time>2010-01-01T00:03:30Z</time>
      </trkpt>
      <trkpt lat="44.65991" lon="3.05118">
        <ele>1186</ele>
        <time>2010-01-01T00:03:35Z</time>
      </trkpt>
      <trkpt lat="44.65952" lon="3.05129">
        <ele>1187</ele>
        <time>2010-01-01T00:03:51Z</time>
      </trkpt>
      <trkpt lat="44.65921" lon="3.05146">
        <ele>1187</ele>
        <time>2010-01-01T00:04:04Z</time>
      </trkpt>
      <trkpt lat="44.65915" lon="3.0514">
        <ele>1188</ele>
        <time>2010-01-01T00:04:07Z</time>
      </trkpt>
      <trkpt lat="44.65906" lon="3.05136">
        <ele>1188</ele>
        <time>2010-01-01T00:04:11Z</time>
      </trkpt>
      <trkpt lat="44.65884" lon="3.05134">
        <ele>1189</ele>
        <time>2010-01-01T00:04:19Z</time>
      </trkpt>
      <trkpt lat="44.6582" lon="3.05155">
        <ele>1189</ele>
        <time>2010-01-01T00:04:46Z</time>
      </trkpt>
      <trkpt lat="44.65718" lon="3.05196">
        <ele>1195</ele>
        <time>2010-01-01T00:05:28Z</time>
      </trkpt>
      <trkpt lat="44.65701" lon="3.052">
        <ele>1195</ele>
        <time>2010-01-01T00:05:35Z</time>
      </trkpt>
      <trkpt lat="44.65663" lon="3.052">
        <ele>1196</ele>
        <time>2010-01-01T00:05:50Z</time>
      </trkpt>
      <trkpt lat="44.6564" lon="3.05194">
        <ele>1196</ele>
        <time>2010-01-01T00:06:00Z</time>
      </trkpt>
      <trkpt lat="44.65641" lon="3.05194">
        <ele>1196</ele>
        <time>2010-01-01T00:06:00Z</time>
      </trkpt>
      <trkpt lat="44.656" lon="3.05181">
        <ele>1198</ele>
        <time>2010-01-01T00:06:17Z</time>
      </trkpt>
      <trkpt lat="44.65562" lon="3.05177">
        <ele>1197</ele>
        <time>2010-01-01T00:06:32Z</time>
      </trkpt>
      <trkpt lat="44.65548" lon="3.05173">
        <ele>1197</ele>
        <time>2010-01-01T00:06:38Z</time>
      </trkpt>
      <trkpt lat="44.65533" lon="3.05167">
        <ele>1198</ele>
        <time>2010-01-01T00:06:44Z</time>
      </trkpt>
      <trkpt lat="44.65499" lon="3.05146">
        <ele>1203</ele>
        <time>2010-01-01T00:06:59Z</time>
      </trkpt>
      <trkpt lat="44.65473" lon="3.05141">
        <ele>1205</ele>
        <time>2010-01-01T00:07:09Z</time>
      </trkpt>
      <trkpt lat="44.65444" lon="3.05145">
        <ele>1207</ele>
        <time>2010-01-01T00:07:21Z</time>
      </trkpt>
      <trkpt lat="44.65395" lon="3.05163">
        <ele>1204</ele>
        <time>2010-01-01T00:07:41Z</time>
      </trkpt>
      <trkpt lat="44.6535" lon="3.05164">
        <ele>1203</ele>
        <time>2010-01-01T00:07:59Z</time>
      </trkpt>
      <trkpt lat="44.65346" lon="3.05166">
        <ele>1203</ele>
        <time>2010-01-01T00:08:01Z</time>
      </trkpt>
      <trkpt lat="44.65343" lon="3.0517">
        <ele>1203</ele>
        <time>2010-01-01T00:08:03Z</time>
      </trkpt>
      <trkpt lat="44.65325" lon="3.05237">
        <ele>1200</ele>
        <time>2010-01-01T00:08:23Z</time>
      </trkpt>
      <trkpt lat="44.65311" lon="3.05271">
        <ele>1200</ele>
        <time>2010-01-01T00:08:34Z</time>
      </trkpt>
      <trkpt lat="44.65273" lon="3.05335">
        <ele>1204</ele>
        <time>2010-01-01T00:08:58Z</time>
      </trkpt>
      <trkpt lat="44.65258" lon="3.05354">
        <ele>1204</ele>
        <time>2010-01-01T00:09:06Z</time>
      </trkpt>
      <trkpt lat="44.65252" lon="3.05359">
        <ele>1204</ele>
        <time>2010-01-01T00:09:09Z</time>
      </trkpt>
      <trkpt lat="44.65242" lon="3.05368">
        <ele>1205</ele>
        <time>2010-01-01T00:09:14Z</time>
      </trkpt>
      <trkpt lat="44.65199" lon="3.05392">
        <ele>1205</ele>
        <time>2010-01-01T00:09:32Z</time>
      </trkpt>
      <trkpt lat="44.65171" lon="3.05399">
        <ele>1206</ele>
        <time>2010-01-01T00:09:44Z</time>
      </trkpt>
      <trkpt lat="44.65165" lon="3.05403">
        <ele>1206</ele>
        <time>2010-01-01T00:09:46Z</time>
      </trkpt>
      <trkpt lat="44.65159" lon="3.05403">
        <ele>1206</ele>
        <time>2010-01-01T00:09:49Z</time>
      </trkpt>
      <trkpt lat="44.65152" lon="3.05407">
        <ele>1206</ele>
        <time>2010-01-01T00:09:52Z</time>
      </trkpt>
      <trkpt lat="44.65147" lon="3.05418">
        <ele>1206</ele>
        <time>2010-01-01T00:09:55Z</time>
      </trkpt>
      <trkpt lat="44.6516" lon="3.05446">
        <ele>1207</ele>
        <time>2010-01-01T00:10:05Z</time>
      </trkpt>
      <trkpt lat="44.65175" lon="3.05469">
        <ele>1207</ele>
        <time>2010-01-01T00:10:14Z</time>
      </trkpt>
      <trkpt lat="44.65187" lon="3.05496">
        <ele>1207</ele>
        <time>2010-01-01T00:10:23Z</time>
      </trkpt>
      <trkpt lat="44.6519" lon="3.05507">
        <ele>1207</ele>
        <time>2010-01-01T00:10:26Z</time>
      </trkpt>
      <trkpt lat="44.6519" lon="3.05519">
        <ele>1207</ele>
        <time>2010-01-01T00:10:30Z</time>
      </trkpt>
      <trkpt lat="44.6517" lon="3.05563">
        <ele>1208</ele>
        <time>2010-01-01T00:10:45Z</time>
      </trkpt>
      <trkpt lat="44.65166" lon="3.05569">
        <ele>1208</ele>
        <time>2010-01-01T00:10:47Z</time>
      </trkpt>
      <trkpt lat="44.65158" lon="3.05594">
        <ele>1208</ele>
        <time>2010-01-01T00:10:55Z</time>
      </trkpt>
      <trkpt lat="44.65161" lon="3.05647">
        <ele>1209</ele>
        <time>2010-01-01T00:11:10Z</time>
      </trkpt>
      <trkpt lat="44.65165" lon="3.0566">
        <ele>1209</ele>
        <time>2010-01-01T00:11:14Z</time>
      </trkpt>
      <trkpt lat="44.65193" lon="3.05696">
        <ele>1209</ele>
        <time>2010-01-01T00:11:29Z</time>
      </trkpt>
      <trkpt lat="44.65209" lon="3.05722">
        <ele>1210</ele>
        <time>2010-01-01T00:11:39Z</time>
      </trkpt>
      <trkpt lat="44.65227" lon="3.05756">
        <ele>1209</ele>
        <time>2010-01-01T00:11:51Z</time>
      </trkpt>
      <trkpt lat="44.65228" lon="3.05763">
        <ele>1209</ele>
        <time>2010-01-01T00:11:53Z</time>
      </trkpt>
      <trkpt lat="44.65215" lon="3.05784">
        <ele>1209</ele>
        <time>2010-01-01T00:12:01Z</time>
      </trkpt>
      <trkpt lat="44.65211" lon="3.05791">
        <ele>1209</ele>
        <time>2010-01-01T00:12:03Z</time>
      </trkpt>
      <trkpt lat="44.65185" lon="3.05797">
        <ele>1210</ele>
        <time>2010-01-01T00:12:14Z</time>
      </trkpt>
      <trkpt lat="44.6516" lon="3.05807">
        <ele>1210</ele>
        <time>2010-01-01T00:12:24Z</time>
      </trkpt>
      <trkpt lat="44.65133" lon="3.05815">
        <ele>1209</ele>
        <time>2010-01-01T00:12:35Z</time>
      </trkpt>
      <trkpt lat="44.65124" lon="3.05827">
        <ele>1209</ele>
        <time>2010-01-01T00:12:40Z</time>
      </trkpt>
      <trkpt lat="44.65121" lon="3.05848">
        <ele>1210</ele>
        <time>2010-01-01T00:12:46Z</time>
      </trkpt>
      <trkpt lat="44.65121" lon="3.05864">
        <ele>1211</ele>
        <time>2010-01-01T00:12:51Z</time>
      </trkpt>
      <trkpt lat="44.65125" lon="3.05876">
        <ele>1211</ele>
        <time>2010-01-01T00:12:55Z</time>
      </trkpt>
      <trkpt lat="44.65095" lon="3.05882">
        <ele>1213</ele>
        <time>2010-01-01T00:13:07Z</time>
      </trkpt>
      <trkpt lat="44.65065" lon="3.05885">
        <ele>1214</ele>
        <time>2010-01-01T00:13:19Z</time>
      </trkpt>
      <trkpt lat="44.65026" lon="3.059">
        <ele>1219</ele>
        <time>2010-01-01T00:13:35Z</time>
      </trkpt>
      <trkpt lat="44.64982" lon="3.05919">
        <ele>1220</ele>
        <time>2010-01-01T00:13:54Z</time>
      </trkpt>
      <trkpt lat="44.64979" lon="3.05923">
        <ele>1220</ele>
        <time>2010-01-01T00:13:55Z</time>
      </trkpt>
      <trkpt lat="44.64967" lon="3.05946">
        <ele>1221</ele>
        <time>2010-01-01T00:14:03Z</time>
      </trkpt>
      <trkpt lat="44.64946" lon="3.05997">
        <ele>1221</ele>
        <time>2010-01-01T00:14:20Z</time>
      </trkpt>
      <trkpt lat="44.64938" lon="3.06012">
        <ele>1221</ele>
        <time>2010-01-01T00:14:26Z</time>
      </trkpt>
      <trkpt lat="44.64936" lon="3.06032">
        <ele>1222</ele>
        <time>2010-01-01T00:14:31Z</time>
      </trkpt>
      <trkpt lat="44.64935" lon="3.06053">
        <ele>1223</ele>
        <time>2010-01-01T00:14:37Z</time>
      </trkpt>
      <trkpt lat="44.649" lon="3.061">
        <ele>1224</ele>
        <time>2010-01-01T00:14:57Z</time>
      </trkpt>
      <trkpt lat="44.64895" lon="3.06131">
        <ele>1222</ele>
        <time>2010-01-01T00:15:06Z</time>
      </trkpt>
      <trkpt lat="44.64883" lon="3.06173">
        <ele>1220</ele>
        <time>2010-01-01T00:15:19Z</time>
      </trkpt>
      <trkpt lat="44.64882" lon="3.062">
        <ele>1218</ele>
        <time>2010-01-01T00:15:26Z</time>
      </trkpt>
      <trkpt lat="44.64878" lon="3.06226">
        <ele>1218</ele>
        <time>2010-01-01T00:15:34Z</time>
      </trkpt>
      <trkpt lat="44.64877" lon="3.06248">
        <ele>1219</ele>
        <time>2010-01-01T00:15:40Z</time>
      </trkpt>
      <trkpt lat="44.64865" lon="3.06302">
        <ele>1220</ele>
        <time>2010-01-01T00:15:56Z</time>
      </trkpt>
      <trkpt lat="44.64857" lon="3.06325">
        <ele>1221</ele>
        <time>2010-01-01T00:16:04Z</time>
      </trkpt>
      <trkpt lat="44.64843" lon="3.06376">
        <ele>1224</ele>
        <time>2010-01-01T00:16:19Z</time>
      </trkpt>
      <trkpt lat="44.64826" lon="3.06429">
        <ele>1223</ele>
        <time>2010-01-01T00:16:36Z</time>
      </trkpt>
      <trkpt lat="44.64823" lon="3.0645">
        <ele>1222</ele>
        <time>2010-01-01T00:16:42Z</time>
      </trkpt>
      <trkpt lat="44.64823" lon="3.06482">
        <ele>1221</ele>
        <time>2010-01-01T00:16:51Z</time>
      </trkpt>
      <trkpt lat="44.64821" lon="3.06485">
        <ele>1221</ele>
        <time>2010-01-01T00:16:52Z</time>
      </trkpt>
      <trkpt lat="44.64811" lon="3.06503">
        <ele>1220</ele>
        <time>2010-01-01T00:16:59Z</time>
      </trkpt>
      <trkpt lat="44.6481" lon="3.06511">
        <ele>1220</ele>
        <time>2010-01-01T00:17:01Z</time>
      </trkpt>
      <trkpt lat="44.64811" lon="3.06518">
        <ele>1220</ele>
        <time>2010-01-01T00:17:03Z</time>
      </trkpt>
      <trkpt lat="44.64781" lon="3.06535">
        <ele>1221</ele>
        <time>2010-01-01T00:17:16Z</time>
      </trkpt>
      <trkpt lat="44.64768" lon="3.06538">
        <ele>1221</ele>
        <time>2010-01-01T00:17:21Z</time>
      </trkpt>
      <trkpt lat="44.64757" lon="3.06538">
        <ele>1221</ele>
        <time>2010-01-01T00:17:26Z</time>
      </trkpt>
      <trkpt lat="44.64738" lon="3.06531">
        <ele>1221</ele>
        <time>2010-01-01T00:17:33Z</time>
      </trkpt>
      <trkpt lat="44.64681" lon="3.06505">
        <ele>1220</ele>
        <time>2010-01-01T00:17:57Z</time>
      </trkpt>
      <trkpt lat="44.64682" lon="3.06505">
        <ele>1220</ele>
        <time>2010-01-01T00:17:58Z</time>
      </trkpt>
      <trkpt lat="44.64569" lon="3.06455">
        <ele>1219</ele>
        <time>2010-01-01T00:18:45Z</time>
      </trkpt>
      <trkpt lat="44.64546" lon="3.06447">
        <ele>1218</ele>
        <time>2010-01-01T00:18:55Z</time>
      </trkpt>
      <trkpt lat="44.64525" lon="3.06445">
        <ele>1219</ele>
        <time>2010-01-01T00:19:03Z</time>
      </trkpt>
      <trkpt lat="44.64465" lon="3.06448">
        <ele>1218</ele>
        <time>2010-01-01T00:19:27Z</time>
      </trkpt>
      <trkpt lat="44.64421" lon="3.0644">
        <ele>1214</ele>
        <time>2010-01-01T00:19:45Z</time>
      </trkpt>
      <trkpt lat="44.6437" lon="3.06435">
        <ele>1213</ele>
        <time>2010-01-01T00:20:05Z</time>
      </trkpt>
      <trkpt lat="44.6432" lon="3.06437">
        <ele>1215</ele>
        <time>2010-01-01T00:20:25Z</time>
      </trkpt>
      <trkpt lat="44.64275" lon="3.06453">
        <ele>1216</ele>
        <time>2010-01-01T00:20:44Z</time>
      </trkpt>
      <trkpt lat="44.64226" lon="3.06464">
        <ele>1217</ele>
        <time>2010-01-01T00:21:04Z</time>
      </trkpt>
      <trkpt lat="44.64176" lon="3.06481">
        <ele>1216</ele>
        <time>2010-01-01T00:21:24Z</time>
      </trkpt>
      <trkpt lat="44.64153" lon="3.06484">
        <ele>1215</ele>
        <time>2010-01-01T00:21:34Z</time>
      </trkpt>
      <trkpt lat="44.64123" lon="3.06485">
        <ele>1216</ele>
        <time>2010-01-01T00:21:46Z</time>
      </trkpt>
      <trkpt lat="44.64078" lon="3.06482">
        <ele>1217</ele>
        <time>2010-01-01T00:22:04Z</time>
      </trkpt>
      <trkpt lat="44.64057" lon="3.06476">
        <ele>1218</ele>
        <time>2010-01-01T00:22:12Z</time>
      </trkpt>
      <trkpt lat="44.64037" lon="3.06465">
        <ele>1219</ele>
        <time>2010-01-01T00:22:21Z</time>
      </trkpt>
      <trkpt lat="44.63977" lon="3.06417">
        <ele>1218</ele>
        <time>2010-01-01T00:22:49Z</time>
      </trkpt>
      <trkpt lat="44.63927" lon="3.06394">
        <ele>1217</ele>
        <time>2010-01-01T00:23:10Z</time>
      </trkpt>
      <trkpt lat="44.63859" lon="3.06357">
        <ele>1217</ele>
        <time>2010-01-01T00:23:39Z</time>
      </trkpt>
      <trkpt lat="44.63846" lon="3.06347">
        <ele>1217</ele>
        <time>2010-01-01T00:23:45Z</time>
      </trkpt>
      <trkpt lat="44.63833" lon="3.06325">
        <ele>1217</ele>
        <time>2010-01-01T00:23:53Z</time>
      </trkpt>
      <trkpt lat="44.63822" lon="3.063">
        <ele>1217</ele>
        <time>2010-01-01T00:24:01Z</time>
      </trkpt>
      <trkpt lat="44.6381" lon="3.06284">
        <ele>1218</ele>
        <time>2010-01-01T00:24:08Z</time>
      </trkpt>
      <trkpt lat="44.63793" lon="3.06272">
        <ele>1218</ele>
        <time>2010-01-01T00:24:15Z</time>
      </trkpt>
      <trkpt lat="44.63683" lon="3.06214">
        <ele>1222</ele>
        <time>2010-01-01T00:25:02Z</time>
      </trkpt>
      <trkpt lat="44.63604" lon="3.0618">
        <ele>1225</ele>
        <time>2010-01-01T00:25:36Z</time>
      </trkpt>
      <trkpt lat="44.63605" lon="3.0618">
        <ele>1225</ele>
        <time>2010-01-01T00:25:36Z</time>
      </trkpt>
      <trkpt lat="44.6359" lon="3.06171">
        <ele>1225</ele>
        <time>2010-01-01T00:25:42Z</time>
      </trkpt>
      <trkpt lat="44.635" lon="3.06109">
        <ele>1227</ele>
        <time>2010-01-01T00:26:23Z</time>
      </trkpt>
      <trkpt lat="44.63147" lon="3.05854">
        <ele>1234</ele>
        <time>2010-01-01T00:29:01Z</time>
      </trkpt>
      <trkpt lat="44.63115" lon="3.05835">
        <ele>1234</ele>
        <time>2010-01-01T00:29:15Z</time>
      </trkpt>
      <trkpt lat="44.63101" lon="3.05831">
        <ele>1233</ele>
        <time>2010-01-01T00:29:21Z</time>
      </trkpt>
      <trkpt lat="44.63058" lon="3.05825">
        <ele>1234</ele>
        <time>2010-01-01T00:29:38Z</time>
      </trkpt>
      <trkpt lat="44.63027" lon="3.05824">
        <ele>1234</ele>
        <time>2010-01-01T00:29:51Z</time>
      </trkpt>
      <trkpt lat="44.6302" lon="3.0582">
        <ele>1234</ele>
        <time>2010-01-01T00:29:54Z</time>
      </trkpt>
      <trkpt lat="44.62968" lon="3.0581">
        <ele>1234</ele>
        <time>2010-01-01T00:30:15Z</time>
      </trkpt>
      <trkpt lat="44.62952" lon="3.0581">
        <ele>1236</ele>
        <time>2010-01-01T00:30:21Z</time>
      </trkpt>
      <trkpt lat="44.62922" lon="3.05797">
        <ele>1239</ele>
        <time>2010-01-01T00:30:34Z</time>
      </trkpt>
      <trkpt lat="44.62825" lon="3.05737">
        <ele>1245</ele>
        <time>2010-01-01T00:31:16Z</time>
      </trkpt>
      <trkpt lat="44.62751" lon="3.057">
        <ele>1244</ele>
        <time>2010-01-01T00:31:48Z</time>
      </trkpt>
      <trkpt lat="44.62752" lon="3.057">
        <ele>1244</ele>
        <time>2010-01-01T00:31:48Z</time>
      </trkpt>
      <trkpt lat="44.62825" lon="3.05737">
        <ele>1245</ele>
        <time>2010-01-01T00:32:19Z</time>
      </trkpt>
      <trkpt lat="44.62922" lon="3.05797">
        <ele>1239</ele>
        <time>2010-01-01T00:33:02Z</time>
      </trkpt>
      <trkpt lat="44.62952" lon="3.0581">
        <ele>1236</ele>
        <time>2010-01-01T00:33:14Z</time>
      </trkpt>
      <trkpt lat="44.62976" lon="3.05812">
        <ele>1233</ele>
        <time>2010-01-01T00:33:24Z</time>
      </trkpt>
      <trkpt lat="44.62977" lon="3.05812">
        <ele>1233</ele>
        <time>2010-01-01T00:33:24Z</time>
      </trkpt>
      <trkpt lat="44.62952" lon="3.0581">
        <ele>1236</ele>
        <time>2010-01-01T00:33:34Z</time>
      </trkpt>
      <trkpt lat="44.62922" lon="3.05797">
        <ele>1239</ele>
        <time>2010-01-01T00:33:47Z</time>
      </trkpt>
      <trkpt lat="44.62825" lon="3.05737">
        <ele>1245</ele>
        <time>2010-01-01T00:34:29Z</time>
      </trkpt>
      <trkpt lat="44.62728" lon="3.05688">
        <ele>1243</ele>
        <time>2010-01-01T00:35:10Z</time>
      </trkpt>
      <trkpt lat="44.62636" lon="3.05636">
        <ele>1242</ele>
        <time>2010-01-01T00:35:50Z</time>
      </trkpt>
      <trkpt lat="44.62545" lon="3.056">
        <ele>1239</ele>
        <time>2010-01-01T00:36:28Z</time>
      </trkpt>
      <trkpt lat="44.62454" lon="3.05557">
        <ele>1247</ele>
        <time>2010-01-01T00:37:06Z</time>
      </trkpt>
      <trkpt lat="44.62419" lon="3.05533">
        <ele>1249</ele>
        <time>2010-01-01T00:37:22Z</time>
      </trkpt>
      <trkpt lat="44.62313" lon="3.05407">
        <ele>1257</ele>
        <time>2010-01-01T00:38:18Z</time>
      </trkpt>
      <trkpt lat="44.623" lon="3.05381">
        <ele>1257</ele>
        <time>2010-01-01T00:38:27Z</time>
      </trkpt>
      <trkpt lat="44.62286" lon="3.0536">
        <ele>1257</ele>
        <time>2010-01-01T00:38:35Z</time>
      </trkpt>
      <trkpt lat="44.62215" lon="3.05207">
        <ele>1256</ele>
        <time>2010-01-01T00:39:27Z</time>
      </trkpt>
      <trkpt lat="44.62193" lon="3.05177">
        <ele>1257</ele>
        <time>2010-01-01T00:39:39Z</time>
      </trkpt>
      <trkpt lat="44.62176" lon="3.05169">
        <ele>1256</ele>
        <time>2010-01-01T00:39:46Z</time>
      </trkpt>
      <trkpt lat="44.62177" lon="3.05169">
        <ele>1256</ele>
        <time>2010-01-01T00:39:47Z</time>
      </trkpt>
      <trkpt lat="44.62118" lon="3.05142">
        <ele>1253</ele>
        <time>2010-01-01T00:40:12Z</time>
      </trkpt>
      <trkpt lat="44.61832" lon="3.05036">
        <ele>1247</ele>
        <time>2010-01-01T00:42:10Z</time>
      </trkpt>
      <trkpt lat="44.61775" lon="3.05012">
        <ele>1247</ele>
        <time>2010-01-01T00:42:34Z</time>
      </trkpt>
      <trkpt lat="44.61708" lon="3.04992">
        <ele>1253</ele>
        <time>2010-01-01T00:43:01Z</time>
      </trkpt>
      <trkpt lat="44.61695" lon="3.04995">
        <ele>1253</ele>
        <time>2010-01-01T00:43:06Z</time>
      </trkpt>
      <trkpt lat="44.61684" lon="3.05001">
        <ele>1253</ele>
        <time>2010-01-01T00:43:11Z</time>
      </trkpt>
      <trkpt lat="44.61646" lon="3.05042">
        <ele>1256</ele>
        <time>2010-01-01T00:43:30Z</time>
      </trkpt>
      <trkpt lat="44.61633" lon="3.05067">
        <ele>1258</ele>
        <time>2010-01-01T00:43:39Z</time>
      </trkpt>
      <trkpt lat="44.61621" lon="3.05085">
        <ele>1259</ele>
        <time>2010-01-01T00:43:46Z</time>
      </trkpt>
      <trkpt lat="44.61614" lon="3.05104">
        <ele>1260</ele>
        <time>2010-01-01T00:43:52Z</time>
      </trkpt>
      <trkpt lat="44.61615" lon="3.05143">
        <ele>1260</ele>
        <time>2010-01-01T00:44:03Z</time>
      </trkpt>
      <trkpt lat="44.61622" lon="3.05192">
        <ele>1260</ele>
        <time>2010-01-01T00:44:18Z</time>
      </trkpt>
      <trkpt lat="44.61621" lon="3.05207">
        <ele>1260</ele>
        <time>2010-01-01T00:44:22Z</time>
      </trkpt>
      <trkpt lat="44.61614" lon="3.05219">
        <ele>1261</ele>
        <time>2010-01-01T00:44:26Z</time>
      </trkpt>
      <trkpt lat="44.61604" lon="3.0523">
        <ele>1261</ele>
        <time>2010-01-01T00:44:32Z</time>
      </trkpt>
      <trkpt lat="44.61588" lon="3.05239">
        <ele>1262</ele>
        <time>2010-01-01T00:44:38Z</time>
      </trkpt>
      <trkpt lat="44.61564" lon="3.05246">
        <ele>1262</ele>
        <time>2010-01-01T00:44:48Z</time>
      </trkpt>
      <trkpt lat="44.61486" lon="3.05214">
        <ele>1268</ele>
        <time>2010-01-01T00:45:21Z</time>
      </trkpt>
      <trkpt lat="44.61444" lon="3.05202">
        <ele>1269</ele>
        <time>2010-01-01T00:45:38Z</time>
      </trkpt>
      <trkpt lat="44.6138" lon="3.05149">
        <ele>1273</ele>
        <time>2010-01-01T00:46:08Z</time>
      </trkpt>
      <trkpt lat="44.61308" lon="3.05133">
        <ele>1272</ele>
        <time>2010-01-01T00:46:37Z</time>
      </trkpt>
      <trkpt lat="44.6128" lon="3.051">
        <ele>1272</ele>
        <time>2010-01-01T00:46:51Z</time>
      </trkpt>
      <trkpt lat="44.61247" lon="3.05076">
        <ele>1273</ele>
        <time>2010-01-01T00:47:06Z</time>
      </trkpt>
      <trkpt lat="44.61213" lon="3.05057">
        <ele>1275</ele>
        <time>2010-01-01T00:47:21Z</time>
      </trkpt>
      <trkpt lat="44.61204" lon="3.05054">
        <ele>1277</ele>
        <time>2010-01-01T00:47:25Z</time>
      </trkpt>
      <trkpt lat="44.61205" lon="3.05054">
        <ele>1276</ele>
        <time>2010-01-01T00:47:25Z</time>
      </trkpt>
      <trkpt lat="44.61173" lon="3.05044">
        <ele>1279</ele>
        <time>2010-01-01T00:47:38Z</time>
      </trkpt>
      <trkpt lat="44.61129" lon="3.0505">
        <ele>1282</ele>
        <time>2010-01-01T00:47:56Z</time>
      </trkpt>
      <trkpt lat="44.61111" lon="3.05049">
        <ele>1284</ele>
        <time>2010-01-01T00:48:03Z</time>
      </trkpt>
      <trkpt lat="44.61098" lon="3.05041">
        <ele>1284</ele>
        <time>2010-01-01T00:48:09Z</time>
      </trkpt>
      <trkpt lat="44.61083" lon="3.0502">
        <ele>1285</ele>
        <time>2010-01-01T00:48:17Z</time>
      </trkpt>
      <trkpt lat="44.61069" lon="3.04962">
        <ele>1288</ele>
        <time>2010-01-01T00:48:35Z</time>
      </trkpt>
      <trkpt lat="44.61054" lon="3.04917">
        <ele>1290</ele>
        <time>2010-01-01T00:48:49Z</time>
      </trkpt>
      <trkpt lat="44.61025" lon="3.04887">
        <ele>1290</ele>
        <time>2010-01-01T00:49:03Z</time>
      </trkpt>
      <trkpt lat="44.60939" lon="3.04774">
        <ele>1295</ele>
        <time>2010-01-01T00:49:50Z</time>
      </trkpt>
      <trkpt lat="44.60907" lon="3.04705">
        <ele>1295</ele>
        <time>2010-01-01T00:50:14Z</time>
      </trkpt>
      <trkpt lat="44.60898" lon="3.04679">
        <ele>1297</ele>
        <time>2010-01-01T00:50:22Z</time>
      </trkpt>
      <trkpt lat="44.60895" lon="3.04634">
        <ele>1297</ele>
        <time>2010-01-01T00:50:35Z</time>
      </trkpt>
      <trkpt lat="44.60898" lon="3.04602">
        <ele>1297</ele>
        <time>2010-01-01T00:50:44Z</time>
      </trkpt>
      <trkpt lat="44.6089" lon="3.04563">
        <ele>1298</ele>
        <time>2010-01-01T00:50:56Z</time>
      </trkpt>
      <trkpt lat="44.60887" lon="3.0452">
        <ele>1299</ele>
        <time>2010-01-01T00:51:08Z</time>
      </trkpt>
      <trkpt lat="44.60889" lon="3.04426">
        <ele>1299</ele>
        <time>2010-01-01T00:51:35Z</time>
      </trkpt>
      <trkpt lat="44.60885" lon="3.04351">
        <ele>1300</ele>
        <time>2010-01-01T00:51:56Z</time>
      </trkpt>
      <trkpt lat="44.60881" lon="3.04325">
        <ele>1300</ele>
        <time>2010-01-01T00:52:04Z</time>
      </trkpt>
      <trkpt lat="44.60856" lon="3.04263">
        <ele>1301</ele>
        <time>2010-01-01T00:52:24Z</time>
      </trkpt>
      <trkpt lat="44.60854" lon="3.04254">
        <ele>1302</ele>
        <time>2010-01-01T00:52:27Z</time>
      </trkpt>
      <trkpt lat="44.60855" lon="3.04243">
        <ele>1301</ele>
        <time>2010-01-01T00:52:30Z</time>
      </trkpt>
      <trkpt lat="44.60864" lon="3.04217">
        <ele>1300</ele>
        <time>2010-01-01T00:52:38Z</time>
      </trkpt>
      <trkpt lat="44.60867" lon="3.04201">
        <ele>1301</ele>
        <time>2010-01-01T00:52:43Z</time>
      </trkpt>
      <trkpt lat="44.60871" lon="3.04107">
        <ele>1303</ele>
        <time>2010-01-01T00:53:10Z</time>
      </trkpt>
      <trkpt lat="44.6087" lon="3.04098">
        <ele>1303</ele>
        <time>2010-01-01T00:53:12Z</time>
      </trkpt>
      <trkpt lat="44.60866" lon="3.04085">
        <ele>1304</ele>
        <time>2010-01-01T00:53:16Z</time>
      </trkpt>
      <trkpt lat="44.60867" lon="3.04085">
        <ele>1304</ele>
        <time>2010-01-01T00:53:17Z</time>
      </trkpt>
      <trkpt lat="44.6084" lon="3.04003">
        <ele>1306</ele>
        <time>2010-01-01T00:53:43Z</time>
      </trkpt>
      <trkpt lat="44.60808" lon="3.0392">
        <ele>1307</ele>
        <time>2010-01-01T00:54:10Z</time>
      </trkpt>
      <trkpt lat="44.60783" lon="3.03867">
        <ele>1312</ele>
        <time>2010-01-01T00:54:28Z</time>
      </trkpt>
      <trkpt lat="44.60754" lon="3.03818">
        <ele>1312</ele>
        <time>2010-01-01T00:54:46Z</time>
      </trkpt>
      <trkpt lat="44.60715" lon="3.03782">
        <ele>1313</ele>
        <time>2010-01-01T00:55:04Z</time>
      </trkpt>
      <trkpt lat="44.60674" lon="3.03753">
        <ele>1313</ele>
        <time>2010-01-01T00:55:23Z</time>
      </trkpt>
      <trkpt lat="44.60659" lon="3.03737">
        <ele>1314</ele>
        <time>2010-01-01T00:55:30Z</time>
      </trkpt>
      <trkpt lat="44.60643" lon="3.03713">
        <ele>1315</ele>
        <time>2010-01-01T00:55:40Z</time>
      </trkpt>
      <trkpt lat="44.60584" lon="3.0366">
        <ele>1313</ele>
        <time>2010-01-01T00:56:08Z</time>
      </trkpt>
      <trkpt lat="44.60543" lon="3.03599">
        <ele>1314</ele>
        <time>2010-01-01T00:56:32Z</time>
      </trkpt>
      <trkpt lat="44.60501" lon="3.03541">
        <ele>1313</ele>
        <time>2010-01-01T00:56:55Z</time>
      </trkpt>
      <trkpt lat="44.60469" lon="3.03515">
        <ele>1316</ele>
        <time>2010-01-01T00:57:10Z</time>
      </trkpt>
      <trkpt lat="44.60432" lon="3.03491">
        <ele>1321</ele>
        <time>2010-01-01T00:57:26Z</time>
      </trkpt>
      <trkpt lat="44.60378" lon="3.03447">
        <ele>1322</ele>
        <time>2010-01-01T00:57:51Z</time>
      </trkpt>
      <trkpt lat="44.60301" lon="3.03353">
        <ele>1315</ele>
        <time>2010-01-01T00:58:32Z</time>
      </trkpt>
      <trkpt lat="44.60302" lon="3.03353">
        <ele>1315</ele>
        <time>2010-01-01T00:58:33Z</time>
      </trkpt>
      <trkpt lat="44.60273" lon="3.03318">
        <ele>1314</ele>
        <time>2010-01-01T00:58:48Z</time>
      </trkpt>
      <trkpt lat="44.60255" lon="3.03283">
        <ele>1315</ele>
        <time>2010-01-01T00:59:00Z</time>
      </trkpt>
      <trkpt lat="44.60246" lon="3.03263">
        <ele>1316</ele>
        <time>2010-01-01T00:59:07Z</time>
      </trkpt>
      <trkpt lat="44.60244" lon="3.03234">
        <ele>1316</ele>
        <time>2010-01-01T00:59:15Z</time>
      </trkpt>
      <trkpt lat="44.60252" lon="3.03164">
        <ele>1314</ele>
        <time>2010-01-01T00:59:36Z</time>
      </trkpt>
      <trkpt lat="44.60255" lon="3.0308">
        <ele>1318</ele>
        <time>2010-01-01T00:59:59Z</time>
      </trkpt>
      <trkpt lat="44.60259" lon="3.03016">
        <ele>1318</ele>
        <time>2010-01-01T01:00:18Z</time>
      </trkpt>
      <trkpt lat="44.60252" lon="3.03015">
        <ele>1318</ele>
        <time>2010-01-01T01:00:21Z</time>
      </trkpt>
      <trkpt lat="44.60253" lon="3.03015">
        <ele>1318</ele>
        <time>2010-01-01T01:00:21Z</time>
      </trkpt>
      <trkpt lat="44.60202" lon="3.03006">
        <ele>1320</ele>
        <time>2010-01-01T01:00:42Z</time>
      </trkpt>
      <trkpt lat="44.60174" lon="3.03007">
        <ele>1319</ele>
        <time>2010-01-01T01:00:53Z</time>
      </trkpt>
      <trkpt lat="44.60152" lon="3.03017">
        <ele>1319</ele>
        <time>2010-01-01T01:01:02Z</time>
      </trkpt>
      <trkpt lat="44.60129" lon="3.03034">
        <ele>1319</ele>
        <time>2010-01-01T01:01:12Z</time>
      </trkpt>
      <trkpt lat="44.60059" lon="3.0311">
        <ele>1321</ele>
        <time>2010-01-01T01:01:48Z</time>
      </trkpt>
      <trkpt lat="44.6004" lon="3.03127">
        <ele>1322</ele>
        <time>2010-01-01T01:01:57Z</time>
      </trkpt>
      <trkpt lat="44.6002" lon="3.03137">
        <ele>1322</ele>
        <time>2010-01-01T01:02:05Z</time>
      </trkpt>
      <trkpt lat="44.59792" lon="3.03179">
        <ele>1342</ele>
        <time>2010-01-01T01:03:37Z</time>
      </trkpt>
      <trkpt lat="44.59764" lon="3.03202">
        <ele>1344</ele>
        <time>2010-01-01T01:03:50Z</time>
      </trkpt>
      <trkpt lat="44.59762" lon="3.03204">
        <ele>1344</ele>
        <time>2010-01-01T01:03:51Z</time>
      </trkpt>
      <trkpt lat="44.59755" lon="3.03209">
        <ele>1344</ele>
        <time>2010-01-01T01:03:55Z</time>
      </trkpt>
      <trkpt lat="44.59688" lon="3.03333">
        <ele>1348</ele>
        <time>2010-01-01T01:04:39Z</time>
      </trkpt>
      <trkpt lat="44.59666" lon="3.03381">
        <ele>1348</ele>
        <time>2010-01-01T01:04:55Z</time>
      </trkpt>
      <trkpt lat="44.59648" lon="3.03442">
        <ele>1347</ele>
        <time>2010-01-01T01:05:14Z</time>
      </trkpt>
      <trkpt lat="44.59507" lon="3.03876">
        <ele>1334</ele>
        <time>2010-01-01T01:07:30Z</time>
      </trkpt>
      <trkpt lat="44.59477" lon="3.03966">
        <ele>1329</ele>
        <time>2010-01-01T01:07:58Z</time>
      </trkpt>
      <trkpt lat="44.59389" lon="3.04208">
        <ele>1323</ele>
        <time>2010-01-01T01:09:16Z</time>
      </trkpt>
      <trkpt lat="44.59352" lon="3.04311">
        <ele>1324</ele>
        <time>2010-01-01T01:09:49Z</time>
      </trkpt>
      <trkpt lat="44.59293" lon="3.04448">
        <ele>1317</ele>
        <time>2010-01-01T01:10:34Z</time>
      </trkpt>
      <trkpt lat="44.59077" lon="3.05005">
        <ele>1343</ele>
        <time>2010-01-01T01:13:35Z</time>
      </trkpt>
      <trkpt lat="44.59063" lon="3.0503">
        <ele>1345</ele>
        <time>2010-01-01T01:13:44Z</time>
      </trkpt>
      <trkpt lat="44.59047" lon="3.05053">
        <ele>1346</ele>
        <time>2010-01-01T01:13:53Z</time>
      </trkpt>
      <trkpt lat="44.59007" lon="3.05104">
        <ele>1348</ele>
        <time>2010-01-01T01:14:15Z</time>
      </trkpt>
      <trkpt lat="44.58688" lon="3.05577">
        <ele>1365</ele>
        <time>2010-01-01T01:17:21Z</time>
      </trkpt>
      <trkpt lat="44.58481" lon="3.05743">
        <ele>1371</ele>
        <time>2010-01-01T01:18:56Z</time>
      </trkpt>
      <trkpt lat="44.58411" lon="3.05781">
        <ele>1370</ele>
        <time>2010-01-01T01:19:26Z</time>
      </trkpt>
      <trkpt lat="44.58165" lon="3.05962">
        <ele>1364</ele>
        <time>2010-01-01T01:21:17Z</time>
      </trkpt>
      <trkpt lat="44.58052" lon="3.06043">
        <ele>1365</ele>
        <time>2010-01-01T01:22:08Z</time>
      </trkpt>
      <trkpt lat="44.5799" lon="3.06087">
        <ele>1366</ele>
        <time>2010-01-01T01:22:36Z</time>
      </trkpt>
      <trkpt lat="44.5797" lon="3.06106">
        <ele>1366</ele>
        <time>2010-01-01T01:22:46Z</time>
      </trkpt>
      <trkpt lat="44.57956" lon="3.06123">
        <ele>1367</ele>
        <time>2010-01-01T01:22:53Z</time>
      </trkpt>
      <trkpt lat="44.57935" lon="3.06157">
        <ele>1368</ele>
        <time>2010-01-01T01:23:06Z</time>
      </trkpt>
      <trkpt lat="44.57889" lon="3.06251">
        <ele>1371</ele>
        <time>2010-01-01T01:23:38Z</time>
      </trkpt>
      <trkpt lat="44.57834" lon="3.06373">
        <ele>1373</ele>
        <time>2010-01-01T01:24:20Z</time>
      </trkpt>
      <trkpt lat="44.57802" lon="3.06409">
        <ele>1373</ele>
        <time>2010-01-01T01:24:36Z</time>
      </trkpt>
      <trkpt lat="44.57662" lon="3.06569">
        <ele>1384</ele>
        <time>2010-01-01T01:25:48Z</time>
      </trkpt>
      <trkpt lat="44.57732" lon="3.06772">
        <ele>1383</ele>
        <time>2010-01-01T01:26:53Z</time>
      </trkpt>
      <trkpt lat="44.57671" lon="3.07068">
        <ele>1392</ele>
        <time>2010-01-01T01:28:20Z</time>
      </trkpt>
      <trkpt lat="44.57663" lon="3.07368">
        <ele>1402</ele>
        <time>2010-01-01T01:29:46Z</time>
      </trkpt>
      <trkpt lat="44.57662" lon="3.07423">
        <ele>1403</ele>
        <time>2010-01-01T01:30:02Z</time>
      </trkpt>
      <trkpt lat="44.57665" lon="3.07451">
        <ele>1404</ele>
        <time>2010-01-01T01:30:10Z</time>
      </trkpt>
      <trkpt lat="44.57683" lon="3.07482">
        <ele>1403</ele>
        <time>2010-01-01T01:30:21Z</time>
      </trkpt>
      <trkpt lat="44.57686" lon="3.07496">
        <ele>1403</ele>
        <time>2010-01-01T01:30:25Z</time>
      </trkpt>
      <trkpt lat="44.57681" lon="3.07564">
        <ele>1405</ele>
        <time>2010-01-01T01:30:45Z</time>
      </trkpt>
      <trkpt lat="44.57675" lon="3.07596">
        <ele>1406</ele>
        <time>2010-01-01T01:30:54Z</time>
      </trkpt>
      <trkpt lat="44.57676" lon="3.0764">
        <ele>1406</ele>
        <time>2010-01-01T01:31:07Z</time>
      </trkpt>
      <trkpt lat="44.57675" lon="3.07659">
        <ele>1406</ele>
        <time>2010-01-01T01:31:12Z</time>
      </trkpt>
      <trkpt lat="44.57694" lon="3.07804">
        <ele>1408</ele>
        <time>2010-01-01T01:31:54Z</time>
      </trkpt>
      <trkpt lat="44.57697" lon="3.07875">
        <ele>1406</ele>
        <time>2010-01-01T01:32:15Z</time>
      </trkpt>
      <trkpt lat="44.57716" lon="3.08058">
        <ele>1410</ele>
        <time>2010-01-01T01:33:07Z</time>
      </trkpt>
      <trkpt lat="44.57717" lon="3.08098">
        <ele>1406</ele>
        <time>2010-01-01T01:33:19Z</time>
      </trkpt>
      <trkpt lat="44.5771" lon="3.08126">
        <ele>1405</ele>
        <time>2010-01-01T01:33:27Z</time>
      </trkpt>
      <trkpt lat="44.57711" lon="3.08126">
        <ele>1405</ele>
        <time>2010-01-01T01:33:28Z</time>
      </trkpt>
      <trkpt lat="44.57708" lon="3.08144">
        <ele>1405</ele>
        <time>2010-01-01T01:33:33Z</time>
      </trkpt>
      <trkpt lat="44.57712" lon="3.08158">
        <ele>1404</ele>
        <time>2010-01-01T01:33:37Z</time>
      </trkpt>
      <trkpt lat="44.57729" lon="3.08182">
        <ele>1402</ele>
        <time>2010-01-01T01:33:47Z</time>
      </trkpt>
      <trkpt lat="44.57738" lon="3.08197">
        <ele>1400</ele>
        <time>2010-01-01T01:33:52Z</time>
      </trkpt>
      <trkpt lat="44.57752" lon="3.08236">
        <ele>1397</ele>
        <time>2010-01-01T01:34:05Z</time>
      </trkpt>
      <trkpt lat="44.5777" lon="3.08294">
        <ele>1394</ele>
        <time>2010-01-01T01:34:23Z</time>
      </trkpt>
      <trkpt lat="44.57772" lon="3.0832">
        <ele>1394</ele>
        <time>2010-01-01T01:34:30Z</time>
      </trkpt>
      <trkpt lat="44.578" lon="3.08389">
        <ele>1394</ele>
        <time>2010-01-01T01:34:53Z</time>
      </trkpt>
      <trkpt lat="44.57808" lon="3.08431">
        <ele>1394</ele>
        <time>2010-01-01T01:35:05Z</time>
      </trkpt>
      <trkpt lat="44.5788" lon="3.08671">
        <ele>1390</ele>
        <time>2010-01-01T01:36:20Z</time>
      </trkpt>
      <trkpt lat="44.57879" lon="3.08671">
        <ele>1390</ele>
        <time>2010-01-01T01:36:20Z</time>
      </trkpt>
      <trkpt lat="44.57886" lon="3.08685">
        <ele>1388</ele>
        <time>2010-01-01T01:36:25Z</time>
      </trkpt>
      <trkpt lat="44.57885" lon="3.08701">
        <ele>1388</ele>
        <time>2010-01-01T01:36:30Z</time>
      </trkpt>
      <trkpt lat="44.57812" lon="3.08948">
        <ele>1375</ele>
        <time>2010-01-01T01:37:46Z</time>
      </trkpt>
      <trkpt lat="44.57801" lon="3.08973">
        <ele>1372</ele>
        <time>2010-01-01T01:37:54Z</time>
      </trkpt>
      <trkpt lat="44.57783" lon="3.08989">
        <ele>1372</ele>
        <time>2010-01-01T01:38:03Z</time>
      </trkpt>
      <trkpt lat="44.57756" lon="3.09005">
        <ele>1371</ele>
        <time>2010-01-01T01:38:14Z</time>
      </trkpt>
      <trkpt lat="44.57695" lon="3.09071">
        <ele>1358</ele>
        <time>2010-01-01T01:38:45Z</time>
      </trkpt>
      <trkpt lat="44.5767" lon="3.09081">
        <ele>1353</ele>
        <time>2010-01-01T01:38:56Z</time>
      </trkpt>
      <trkpt lat="44.57644" lon="3.09138">
        <ele>1348</ele>
        <time>2010-01-01T01:39:15Z</time>
      </trkpt>
      <trkpt lat="44.57643" lon="3.09143">
        <ele>1347</ele>
        <time>2010-01-01T01:39:16Z</time>
      </trkpt>
      <trkpt lat="44.57643" lon="3.09148">
        <ele>1346</ele>
        <time>2010-01-01T01:39:18Z</time>
      </trkpt>
      <trkpt lat="44.57628" lon="3.09175">
        <ele>1343</ele>
        <time>2010-01-01T01:39:28Z</time>
      </trkpt>
      <trkpt lat="44.57622" lon="3.0921">
        <ele>1341</ele>
        <time>2010-01-01T01:39:38Z</time>
      </trkpt>
      <trkpt lat="44.57619" lon="3.09225">
        <ele>1340</ele>
        <time>2010-01-01T01:39:42Z</time>
      </trkpt>
      <trkpt lat="44.57608" lon="3.09248">
        <ele>1337</ele>
        <time>2010-01-01T01:39:50Z</time>
      </trkpt>
      <trkpt lat="44.57611" lon="3.09261">
        <ele>1337</ele>
        <time>2010-01-01T01:39:54Z</time>
      </trkpt>
      <trkpt lat="44.57613" lon="3.09283">
        <ele>1336</ele>
        <time>2010-01-01T01:40:00Z</time>
      </trkpt>
      <trkpt lat="44.57608" lon="3.09332">
        <ele>1333</ele>
        <time>2010-01-01T01:40:15Z</time>
      </trkpt>
      <trkpt lat="44.57601" lon="3.09342">
        <ele>1332</ele>
        <time>2010-01-01T01:40:19Z</time>
      </trkpt>
      <trkpt lat="44.57598" lon="3.09358">
        <ele>1331</ele>
        <time>2010-01-01T01:40:23Z</time>
      </trkpt>
      <trkpt lat="44.57603" lon="3.09377">
        <ele>1330</ele>
        <time>2010-01-01T01:40:29Z</time>
      </trkpt>
      <trkpt lat="44.57603" lon="3.09391">
        <ele>1330</ele>
        <time>2010-01-01T01:40:33Z</time>
      </trkpt>
      <trkpt lat="44.57587" lon="3.09426">
        <ele>1325</ele>
        <time>2010-01-01T01:40:45Z</time>
      </trkpt>
      <trkpt lat="44.5758" lon="3.09454">
        <ele>1323</ele>
        <time>2010-01-01T01:40:53Z</time>
      </trkpt>
      <trkpt lat="44.5758" lon="3.09479">
        <ele>1323</ele>
        <time>2010-01-01T01:41:01Z</time>
      </trkpt>
      <trkpt lat="44.57582" lon="3.0953">
        <ele>1323</ele>
        <time>2010-01-01T01:41:15Z</time>
      </trkpt>
      <trkpt lat="44.5758" lon="3.09554">
        <ele>1323</ele>
        <time>2010-01-01T01:41:22Z</time>
      </trkpt>
      <trkpt lat="44.57582" lon="3.09576">
        <ele>1322</ele>
        <time>2010-01-01T01:41:28Z</time>
      </trkpt>
      <trkpt lat="44.57585" lon="3.09595">
        <ele>1321</ele>
        <time>2010-01-01T01:41:34Z</time>
      </trkpt>
      <trkpt lat="44.57599" lon="3.09641">
        <ele>1318</ele>
        <time>2010-01-01T01:41:48Z</time>
      </trkpt>
      <trkpt lat="44.57599" lon="3.09656">
        <ele>1317</ele>
        <time>2010-01-01T01:41:52Z</time>
      </trkpt>
      <trkpt lat="44.57596" lon="3.09671">
        <ele>1316</ele>
        <time>2010-01-01T01:41:57Z</time>
      </trkpt>
      <trkpt lat="44.57586" lon="3.09697">
        <ele>1315</ele>
        <time>2010-01-01T01:42:05Z</time>
      </trkpt>
      <trkpt lat="44.57586" lon="3.09706">
        <ele>1314</ele>
        <time>2010-01-01T01:42:08Z</time>
      </trkpt>
      <trkpt lat="44.57591" lon="3.09781">
        <ele>1313</ele>
        <time>2010-01-01T01:42:29Z</time>
      </trkpt>
      <trkpt lat="44.57555" lon="3.09937">
        <ele>1321</ele>
        <time>2010-01-01T01:43:16Z</time>
      </trkpt>
      <trkpt lat="44.57527" lon="3.10097">
        <ele>1336</ele>
        <time>2010-01-01T01:44:03Z</time>
      </trkpt>
      <trkpt lat="44.57506" lon="3.10185">
        <ele>1342</ele>
        <time>2010-01-01T01:44:29Z</time>
      </trkpt>
      <trkpt lat="44.57407" lon="3.10527">
        <ele>1369</ele>
        <time>2010-01-01T01:46:15Z</time>
      </trkpt>
      <trkpt lat="44.57388" lon="3.10602">
        <ele>1373</ele>
        <time>2010-01-01T01:46:37Z</time>
      </trkpt>
      <trkpt lat="44.57386" lon="3.1063">
        <ele>1375</ele>
        <time>2010-01-01T01:46:45Z</time>
      </trkpt>
      <trkpt lat="44.57386" lon="3.1066">
        <ele>1377</ele>
        <time>2010-01-01T01:46:54Z</time>
      </trkpt>
      <trkpt lat="44.57401" lon="3.10695">
        <ele>1377</ele>
        <time>2010-01-01T01:47:06Z</time>
      </trkpt>
      <trkpt lat="44.57411" lon="3.10727">
        <ele>1377</ele>
        <time>2010-01-01T01:47:16Z</time>
      </trkpt>
      <trkpt lat="44.57429" lon="3.10976">
        <ele>1367</ele>
        <time>2010-01-01T01:48:27Z</time>
      </trkpt>
      <trkpt lat="44.57445" lon="3.11061">
        <ele>1360</ele>
        <time>2010-01-01T01:48:52Z</time>
      </trkpt>
      <trkpt lat="44.57447" lon="3.11087">
        <ele>1359</ele>
        <time>2010-01-01T01:49:00Z</time>
      </trkpt>
      <trkpt lat="44.57442" lon="3.11113">
        <ele>1357</ele>
        <time>2010-01-01T01:49:07Z</time>
      </trkpt>
      <trkpt lat="44.5741" lon="3.11245">
        <ele>1348</ele>
        <time>2010-01-01T01:49:47Z</time>
      </trkpt>
      <trkpt lat="44.57366" lon="3.11366">
        <ele>1342</ele>
        <time>2010-01-01T01:50:26Z</time>
      </trkpt>
      <trkpt lat="44.57313" lon="3.11427">
        <ele>1341</ele>
        <time>2010-01-01T01:50:53Z</time>
      </trkpt>
      <trkpt lat="44.5728" lon="3.11487">
        <ele>1338</ele>
        <time>2010-01-01T01:51:15Z</time>
      </trkpt>
      <trkpt lat="44.57249" lon="3.11552">
        <ele>1337</ele>
        <time>2010-01-01T01:51:37Z</time>
      </trkpt>
      <trkpt lat="44.5722" lon="3.11633">
        <ele>1329</ele>
        <time>2010-01-01T01:52:03Z</time>
      </trkpt>
    </trkseg>
  </trk>
</gpx>